Time;durP1;ratioP1;P1;durP2;ratioP2;P2;SDS_P1;SDS_P2;PMS_P1;PMS_P2;Temp;Humidity;BMP_temperature;BMP_pressure;BME280_temperature;BME280_humidity;BME280_pressure;Samples;Min_cycle;Max_cycle;Signal;HPM_P1;HPM_P2
2022/03/24 00:00:38;;;;;;;34.15;15.23;;;5.20;99.90;;;;;;6191501;23;20048;-81
2022/03/24 00:03:03;;;;;;;30.08;15.15;;;5.20;99.90;;;;;;6167982;23;20021;-81
2022/03/24 00:05:30;;;;;;;38.25;16.23;;;5.20;99.90;;;;;;6166790;23;20093;-81
2022/03/24 00:07:55;;;;;;;41.08;18.13;;;5.10;99.90;;;;;;6165165;23;20017;-81
2022/03/24 00:10:21;;;;;;;35.72;17.13;;;5.10;99.90;;;;;;6164534;23;20075;-81
2022/03/24 00:12:46;;;;;;;32.45;16.73;;;5.10;99.90;;;;;;6162206;23;20013;-83
2022/03/24 00:15:12;;;;;;;39.95;16.60;;;5.10;99.90;;;;;;6164831;23;20402;-83
2022/03/24 00:17:38;;;;;;;39.10;16.73;;;5.10;99.90;;;;;;6165496;23;20080;-83
2022/03/24 00:20:04;;;;;;;32.53;15.75;;;5.00;99.90;;;;;;6143230;23;20422;-83
2022/03/24 00:22:30;;;;;;;47.00;17.65;;;5.00;99.90;;;;;;6160734;23;20050;-83
2022/03/24 00:24:56;;;;;;;38.47;18.55;;;4.90;99.90;;;;;;6159654;23;20016;-83
2022/03/24 00:27:21;;;;;;;33.70;16.27;;;4.80;99.90;;;;;;6158807;23;20357;-83
2022/03/24 00:29:47;;;;;;;37.42;17.85;;;4.80;99.90;;;;;;6158147;23;20021;-83
2022/03/24 00:32:13;;;;;;;36.20;16.73;;;4.70;99.90;;;;;;6158494;23;20044;-83
2022/03/24 00:34:39;;;;;;;33.00;17.42;;;4.70;99.90;;;;;;6158546;23;20009;-83
2022/03/24 00:37:04;;;;;;;39.88;16.77;;;4.70;99.90;;;;;;6157308;23;20013;-83
2022/03/24 00:39:34;;;;;;;38.35;17.75;;;4.60;99.90;;;;;;6156978;23;20116;-83
2022/03/24 00:42:01;;;;;;;41.20;19.02;;;4.50;99.90;;;;;;6157813;23;20096;-83
2022/03/24 00:44:27;;;;;;;38.92;17.13;;;4.50;99.90;;;;;;6158674;23;20021;-83
2022/03/24 00:46:53;;;;;;;39.80;18.27;;;4.50;99.90;;;;;;6158351;23;20354;-83
2022/03/24 00:49:20;;;;;;;44.13;19.17;;;4.40;99.90;;;;;;6133948;23;20331;-83
2022/03/24 00:51:46;;;;;;;37.42;18.35;;;4.40;99.90;;;;;;6158859;23;20009;-83
2022/03/24 00:54:11;;;;;;;38.60;17.75;;;4.40;99.90;;;;;;6158265;23;20500;-83
2022/03/24 00:56:37;;;;;;;39.83;20.05;;;4.30;99.90;;;;;;6158484;23;20023;-83
2022/03/24 00:59:02;;;;;;;40.92;18.17;;;4.20;99.90;;;;;;6157284;23;20009;-82
2022/03/24 01:01:28;;;;;;;39.88;17.98;;;4.30;99.90;;;;;;6156738;23;20024;-82
2022/03/24 01:03:53;;;;;;;41.17;19.73;;;4.30;99.90;;;;;;6157639;23;20027;-83
2022/03/24 01:06:19;;;;;;;37.92;18.70;;;4.30;99.90;;;;;;6157938;23;20019;-82
2022/03/24 01:08:45;;;;;;;36.63;18.17;;;4.20;99.90;;;;;;6132672;23;20009;-83
2022/03/24 01:11:10;;;;;;;50.17;19.63;;;4.20;99.90;;;;;;6159747;23;20413;-82
2022/03/24 01:13:37;;;;;;;43.05;18.80;;;4.20;99.90;;;;;;6158814;23;20009;-82
2022/03/24 01:16:03;;;;;;;39.28;17.40;;;4.10;99.90;;;;;;6159272;23;20009;-82
2022/03/24 01:18:32;;;;;;;42.40;18.42;;;4.00;99.90;;;;;;6159087;23;20398;-82
2022/03/24 01:21:00;;;;;;;42.53;17.83;;;3.90;99.90;;;;;;6135615;23;20013;-82
2022/03/24 01:23:26;;;;;;;40.13;17.63;;;3.90;99.90;;;;;;6133414;23;20454;-82
2022/03/24 01:25:54;;;;;;;38.13;17.88;;;3.80;99.90;;;;;;6158265;23;20055;-82
2022/03/24 01:28:20;;;;;;;38.40;18.13;;;3.80;99.90;;;;;;6157012;23;20413;-82
2022/03/24 01:30:46;;;;;;;37.50;18.25;;;3.80;99.90;;;;;;6156145;23;20210;-82
2022/03/24 01:33:12;;;;;;;35.28;16.23;;;3.80;99.90;;;;;;6156915;23;20009;-82
2022/03/24 01:35:37;;;;;;;43.33;18.23;;;3.90;99.90;;;;;;6157434;23;20009;-82
2022/03/24 01:38:03;;;;;;;35.60;17.08;;;3.90;99.90;;;;;;6157541;23;20023;-82
2022/03/24 01:40:28;;;;;;;42.70;17.77;;;3.90;99.90;;;;;;6157199;23;20323;-82
2022/03/24 01:42:55;;;;;;;43.75;17.50;;;3.90;99.90;;;;;;6157892;23;20032;-82
2022/03/24 01:45:20;;;;;;;39.28;16.92;;;3.90;99.90;;;;;;6184232;23;20005;-82
2022/03/24 01:47:46;;;;;;;38.78;17.88;;;3.80;99.90;;;;;;6158081;23;20078;-82
2022/03/24 01:50:11;;;;;;;39.30;17.13;;;3.80;99.90;;;;;;6157613;23;20416;-82
2022/03/24 01:52:37;;;;;;;40.00;18.17;;;3.70;99.90;;;;;;6157759;23;20375;-82
2022/03/24 01:55:06;;;;;;;39.53;18.30;;;3.70;99.90;;;;;;6133509;23;20039;-82
2022/03/24 01:57:32;;;;;;;39.70;16.50;;;3.80;99.90;;;;;;6133296;23;20013;-82
2022/03/24 01:59:59;;;;;;;41.85;19.45;;;3.80;99.90;;;;;;6157714;23;20476;-82
2022/03/24 02:02:25;;;;;;;39.47;17.42;;;3.70;99.90;;;;;;6133158;23;20088;-82
2022/03/24 02:04:50;;;;;;;41.10;18.88;;;3.70;99.90;;;;;;6133090;23;20044;-82
2022/03/24 02:07:16;;;;;;;36.88;18.80;;;3.70;99.90;;;;;;6157960;23;20024;-82
2022/03/24 02:09:42;;;;;;;38.47;17.95;;;3.70;99.90;;;;;;6157816;23;20024;-82
2022/03/24 02:12:11;;;;;;;35.33;16.95;;;3.70;99.90;;;;;;6157499;23;20019;-82
2022/03/24 02:14:38;;;;;;;42.67;18.10;;;3.70;99.90;;;;;;6157931;23;20021;-82
2022/03/24 02:17:04;;;;;;;38.78;19.67;;;3.70;99.90;;;;;;6157497;23;20019;-82
2022/03/24 02:19:31;;;;;;;39.85;18.40;;;3.70;99.90;;;;;;6133075;23;20013;-82
2022/03/24 02:22:01;;;;;;;44.50;19.77;;;3.60;99.90;;;;;;6157646;23;20020;-82
2022/03/24 02:24:26;;;;;;;41.65;18.75;;;3.60;99.90;;;;;;6157381;23;20213;-82
2022/03/24 02:26:53;;;;;;;45.05;20.75;;;3.50;99.90;;;;;;6133758;23;20043;-82
2022/03/24 02:29:25;;;;;;;41.92;18.95;;;3.50;99.90;;;;;;6133729;23;20012;-82
2022/03/24 02:31:51;;;;;;;38.97;18.83;;;3.40;99.90;;;;;;6158826;23;20085;-82
2022/03/24 02:34:37;;;;;;;44.28;20.00;;;3.50;99.90;;;;;;6158061;23;20013;-82
2022/03/24 02:37:07;;;;;;;43.25;19.67;;;3.50;99.90;;;;;;6158680;23;20048;-82
2022/03/24 02:39:39;;;;;;;45.33;20.48;;;3.50;99.90;;;;;;6157281;23;20387;-82
2022/03/24 02:42:07;;;;;;;40.95;19.38;;;3.50;99.90;;;;;;6133499;23;20095;-82
2022/03/24 02:44:33;;;;;;;50.05;20.10;;;3.50;99.90;;;;;;6158986;23;20023;-82
2022/03/24 02:47:01;;;;;;;45.13;19.35;;;3.50;99.90;;;;;;6157751;23;20087;-82
2022/03/24 02:49:30;;;;;;;42.78;19.60;;;3.50;99.90;;;;;;6158203;23;20017;-82
2022/03/24 02:52:01;;;;;;;41.78;19.35;;;3.50;99.90;;;;;;6157618;23;20009;-82
2022/03/24 02:54:29;;;;;;;42.25;19.13;;;3.50;99.90;;;;;;6133716;23;20401;-82
2022/03/24 02:56:55;;;;;;;43.45;18.30;;;3.40;99.90;;;;;;6157848;23;20422;-82
2022/03/24 02:59:22;;;;;;;37.00;17.52;;;3.40;99.90;;;;;;6158508;23;20013;-82
2022/03/24 03:02:06;;;;;;;46.17;19.60;;;3.20;99.90;;;;;;6184451;23;20020;-82
2022/03/24 03:04:32;;;;;;;42.70;18.55;;;3.20;99.90;;;;;;6158234;23;20040;-82
2022/03/24 03:06:58;;;;;;;40.10;18.73;;;3.20;99.90;;;;;;6159513;23;20013;-82
2022/03/24 03:09:24;;;;;;;43.45;18.27;;;3.10;99.90;;;;;;6136069;23;20056;-82
2022/03/24 03:11:52;;;;;;;47.47;21.63;;;3.10;99.90;;;;;;6160078;23;20009;-82
2022/03/24 03:14:19;;;;;;;41.88;18.90;;;3.10;99.90;;;;;;6159449;23;20009;-82
2022/03/24 03:16:46;;;;;;;48.88;20.50;;;3.00;99.90;;;;;;6159725;23;20009;-82
2022/03/24 03:19:13;;;;;;;41.03;19.00;;;3.00;99.90;;;;;;6160765;23;20013;-82
2022/03/24 03:21:40;;;;;;;47.38;20.63;;;3.00;99.90;;;;;;6136882;23;20077;-82
2022/03/24 03:24:07;;;;;;;50.00;21.00;;;3.00;99.90;;;;;;6161642;23;20009;-82
2022/03/24 03:26:33;;;;;;;47.20;20.13;;;3.00;99.90;;;;;;6136635;23;20013;-82
2022/03/24 03:28:59;;;;;;;46.10;20.00;;;3.00;99.90;;;;;;6161133;23;20013;-82
2022/03/24 03:31:25;;;;;;;44.35;19.80;;;2.90;99.90;;;;;;6160170;23;20036;-82
2022/03/24 03:33:51;;;;;;;43.22;19.67;;;2.90;99.90;;;;;;6160636;23;20013;-83
2022/03/24 03:36:21;;;;;;;45.88;20.55;;;2.90;99.90;;;;;;6162181;23;20013;-83
2022/03/24 03:38:47;;;;;;;43.30;20.55;;;2.90;99.90;;;;;;6161454;23;20037;-82
2022/03/24 03:41:14;;;;;;;50.17;21.13;;;2.90;99.90;;;;;;6160285;23;20447;-82
2022/03/24 03:43:41;;;;;;;45.83;21.65;;;2.90;99.90;;;;;;6160566;23;20052;-83
2022/03/24 03:46:08;;;;;;;47.67;20.58;;;2.90;99.90;;;;;;6188711;23;20009;-82
2022/03/24 03:48:34;;;;;;;49.13;20.95;;;3.00;99.90;;;;;;6160739;23;20013;-82
2022/03/24 03:51:00;;;;;;;46.35;20.65;;;2.90;99.90;;;;;;6159139;23;20027;-82
2022/03/24 03:53:25;;;;;;;50.67;21.88;;;2.90;99.90;;;;;;6160399;23;20009;-82
2022/03/24 03:55:51;;;;;;;47.85;20.77;;;2.80;99.90;;;;;;6160699;23;20045;-82
2022/03/24 03:58:16;;;;;;;44.70;19.80;;;2.80;99.90;;;;;;6160116;23;20040;-82
2022/03/24 04:00:55;;;;;;;47.85;21.77;;;2.70;99.90;;;;;;6135708;23;20053;-82
2022/03/24 04:03:32;;;;;;;45.63;21.20;;;2.70;99.90;;;;;;6161055;23;20009;-82
2022/03/24 04:06:07;;;;;;;47.15;21.00;;;2.70;99.90;;;;;;6135333;23;20024;-82
2022/03/24 04:08:32;;;;;;;46.85;20.90;;;2.70;99.90;;;;;;6160558;23;20012;-82
2022/03/24 04:10:59;;;;;;;49.50;20.65;;;2.80;99.90;;;;;;6134022;23;20048;-82
2022/03/24 04:13:24;;;;;;;46.25;21.33;;;2.80;99.90;;;;;;6159423;23;20071;-82
2022/03/24 04:15:52;;;;;;;44.92;20.20;;;2.70;99.90;;;;;;6159110;23;20347;-82
2022/03/24 04:18:18;;;;;;;50.00;22.17;;;2.80;99.90;;;;;;6158611;23;20347;-82
2022/03/24 04:20:44;;;;;;;49.60;21.35;;;2.80;99.90;;;;;;6159390;23;20035;-81
2022/03/24 04:23:11;;;;;;;48.92;21.17;;;2.80;99.90;;;;;;6135966;23;20024;-81
2022/03/24 04:25:38;;;;;;;45.92;19.58;;;2.80;99.90;;;;;;6159925;23;20059;-81
2022/03/24 04:28:04;;;;;;;50.65;21.90;;;2.80;99.90;;;;;;6160011;23;20458;-81
2022/03/24 04:30:31;;;;;;;45.28;21.27;;;2.80;99.90;;;;;;6158699;23;20136;-81
2022/03/24 04:32:58;;;;;;;44.63;21.05;;;2.90;99.90;;;;;;6134515;23;20110;-81
2022/03/24 04:35:23;;;;;;;47.72;21.23;;;2.90;99.90;;;;;;6157717;23;20005;-81
2022/03/24 04:37:50;;;;;;;49.33;20.75;;;2.80;99.90;;;;;;6158406;23;20047;-81
2022/03/24 04:40:17;;;;;;;50.53;21.67;;;2.70;99.90;;;;;;6157618;23;20013;-81
2022/03/24 04:42:49;;;;;;;48.28;21.65;;;2.60;99.90;;;;;;6158108;23;20501;-81
2022/03/24 04:45:17;;;;;;;44.92;19.65;;;2.60;99.90;;;;;;6157857;23;20466;-81
2022/03/24 04:47:43;;;;;;;41.90;19.92;;;2.50;99.90;;;;;;6158557;23;20350;-81
2022/03/24 04:50:09;;;;;;;47.30;21.83;;;2.40;99.90;;;;;;6157104;23;20017;-81
2022/03/24 04:52:35;;;;;;;54.67;24.95;;;2.40;99.90;;;;;;6157803;23;20343;-81
2022/03/24 04:55:01;;;;;;;55.17;24.50;;;2.40;99.90;;;;;;6157298;23;20012;-81
2022/03/24 04:57:27;;;;;;;58.92;25.05;;;2.40;99.90;;;;;;6158188;23;20092;-80
2022/03/24 04:59:53;;;;;;;52.63;24.17;;;2.30;99.90;;;;;;6158109;23;20679;-80
2022/03/24 05:02:19;;;;;;;48.58;23.17;;;2.30;99.90;;;;;;6157600;23;20331;-80
2022/03/24 05:04:45;;;;;;;44.85;21.58;;;2.40;99.90;;;;;;6157328;23;20078;-80
2022/03/24 05:07:11;;;;;;;46.28;21.48;;;2.40;99.90;;;;;;6157566;23;20028;-80
2022/03/24 05:09:37;;;;;;;56.67;23.38;;;2.50;99.90;;;;;;6157781;23;20013;-80
2022/03/24 05:12:03;;;;;;;51.63;22.52;;;2.50;99.90;;;;;;6157385;23;20009;-80
2022/03/24 05:14:30;;;;;;;47.20;20.20;;;2.50;99.90;;;;;;6133647;23;20020;-80
2022/03/24 05:16:56;;;;;;;46.80;20.60;;;2.50;99.90;;;;;;6157963;23;20414;-80
2022/03/24 05:19:22;;;;;;;54.13;21.92;;;2.60;99.90;;;;;;6156173;23;20013;-80
2022/03/24 05:21:48;;;;;;;43.90;21.25;;;2.60;99.90;;;;;;6156215;23;20450;-80
2022/03/24 05:24:14;;;;;;;48.53;20.65;;;2.50;99.90;;;;;;6156990;23;20013;-80
2022/03/24 05:26:40;;;;;;;47.03;20.17;;;2.40;99.90;;;;;;6161257;23;20492;-80
2022/03/24 05:29:06;;;;;;;52.30;21.05;;;2.30;99.90;;;;;;6160469;23;20009;-81
2022/03/24 05:31:32;;;;;;;54.88;21.27;;;2.20;99.90;;;;;;6161488;23;20024;-80
2022/03/24 05:33:57;;;;;;;44.40;20.23;;;2.20;99.90;;;;;;6138461;23;20009;-80
2022/03/24 05:36:23;;;;;;;50.95;22.63;;;2.10;99.90;;;;;;6160917;23;20009;-81
2022/03/24 05:38:49;;;;;;;50.03;22.23;;;2.20;99.90;;;;;;6161182;23;20058;-81
2022/03/24 05:41:15;;;;;;;49.65;22.55;;;2.30;99.90;;;;;;6156704;23;20357;-80
2022/03/24 05:44:02;;;;;;;50.65;23.33;;;2.30;99.90;;;;;;6157212;23;20009;-82
2022/03/24 05:46:26;;;;;;;47.28;21.33;;;2.30;99.90;;;;;;6156373;23;20462;-82
2022/03/24 05:48:51;;;;;;;48.00;23.48;;;2.30;99.90;;;;;;6157972;23;20044;-83
2022/03/24 05:51:17;;;;;;;58.10;26.80;;;2.20;99.90;;;;;;6156993;23;20055;-82
2022/03/24 05:53:43;;;;;;;46.90;22.15;;;2.20;99.90;;;;;;6157492;23;20009;-82
2022/03/24 05:56:09;;;;;;;52.42;21.55;;;2.20;99.90;;;;;;6157668;23;20005;-82
2022/03/24 05:58:34;;;;;;;50.15;21.65;;;2.30;99.90;;;;;;6157444;23;20013;-81
2022/03/24 06:01:00;;;;;;;52.47;22.55;;;2.30;99.90;;;;;;6158050;23;20346;-82
2022/03/24 06:03:27;;;;;;;48.13;21.65;;;2.40;99.90;;;;;;6157174;23;20024;-82
2022/03/24 06:05:53;;;;;;;48.85;21.45;;;2.50;99.90;;;;;;6158545;23;20079;-81
2022/03/24 06:08:19;;;;;;;46.53;21.42;;;2.60;99.90;;;;;;6159857;23;20017;-81
2022/03/24 06:10:48;;;;;;;70.68;30.35;;;2.60;99.90;;;;;;6159157;23;20079;-81
2022/03/24 06:13:14;;;;;;;56.92;25.20;;;2.70;99.90;;;;;;6135175;23;20052;-81
2022/03/24 06:15:39;;;;;;;56.92;23.83;;;2.80;99.90;;;;;;6138631;23;20008;-83
2022/03/24 06:18:05;;;;;;;58.75;25.90;;;2.80;99.90;;;;;;6136764;23;20020;-82
2022/03/24 06:20:30;;;;;;;60.15;25.02;;;2.90;99.90;;;;;;6139121;23;20013;-81
2022/03/24 06:22:56;;;;;;;47.33;21.15;;;2.90;99.90;;;;;;6141373;23;20064;-81
2022/03/24 06:25:22;;;;;;;49.70;22.85;;;3.00;99.90;;;;;;6165419;23;20021;-82
2022/03/24 06:27:49;;;;;;;51.75;23.95;;;3.00;99.90;;;;;;6156781;23;20013;-82
2022/03/24 06:30:16;;;;;;;56.35;22.50;;;3.00;99.90;;;;;;6134144;23;20013;-82
2022/03/24 06:32:42;;;;;;;52.92;23.08;;;3.10;99.90;;;;;;6165698;23;20155;-82
2022/03/24 06:35:08;;;;;;;70.45;31.65;;;3.10;99.90;;;;;;6138844;23;20059;-83
2022/03/24 06:37:40;;;;;;;55.88;27.33;;;3.20;99.90;;;;;;6162810;23;20017;-82
2022/03/24 06:40:11;;;;;;;50.10;22.33;;;3.30;99.90;;;;;;6139598;23;20391;-82
2022/03/24 06:42:37;;;;;;;51.28;24.55;;;3.50;99.90;;;;;;6140252;23;20454;-82
2022/03/24 06:45:06;;;;;;;59.08;26.45;;;3.60;99.90;;;;;;6165530;23;20017;-81
2022/03/24 06:47:33;;;;;;;56.17;24.25;;;3.70;99.90;;;;;;6141485;23;20017;-83
2022/03/24 06:49:58;;;;;;;56.22;25.77;;;3.80;99.90;;;;;;6161369;23;20342;-82
2022/03/24 06:52:24;;;;;;;60.55;24.95;;;4.00;99.90;;;;;;6161523;23;20013;-82
2022/03/24 06:54:49;;;;;;;54.00;25.77;;;4.10;99.90;;;;;;6137558;23;20009;-82
2022/03/24 06:57:15;;;;;;;59.83;26.30;;;4.20;99.90;;;;;;6163216;23;20013;-82
2022/03/24 06:59:41;;;;;;;58.00;24.58;;;4.40;99.90;;;;;;6138630;23;20027;-82
2022/03/24 07:02:07;;;;;;;52.08;25.30;;;4.50;99.90;;;;;;6139337;23;20013;-82
2022/03/24 07:04:34;;;;;;;58.50;26.52;;;4.70;99.90;;;;;;6162300;23;20017;-83
2022/03/24 07:07:00;;;;;;;62.22;25.95;;;5.00;99.90;;;;;;6183145;23;20017;-83
2022/03/24 07:09:25;;;;;;;58.35;25.15;;;5.20;99.90;;;;;;6156269;23;20024;-83
2022/03/24 07:11:51;;;;;;;57.03;26.38;;;5.30;99.90;;;;;;6131650;23;20009;-83
2022/03/24 07:14:17;;;;;;;58.45;26.40;;;5.60;99.90;;;;;;6131797;23;20080;-83
2022/03/24 07:16:42;;;;;;;55.92;25.23;;;5.80;99.90;;;;;;6131884;23;20442;-83
2022/03/24 07:19:09;;;;;;;55.50;28.10;;;5.90;99.90;;;;;;6156429;23;20013;-83
2022/03/24 07:21:35;;;;;;;65.15;26.05;;;6.20;99.90;;;;;;6156067;23;20172;-83
2022/03/24 07:24:01;;;;;;;72.32;33.75;;;6.80;99.90;;;;;;6156271;23;20017;-83
2022/03/24 07:26:26;;;;;;;60.83;30.45;;;7.70;99.90;;;;;;6156315;23;20541;-83
2022/03/24 07:28:52;;;;;;;54.00;28.00;;;8.60;99.90;;;;;;6156626;23;20005;-83
2022/03/24 07:31:19;;;;;;;52.47;26.88;;;9.40;99.90;;;;;;6155957;23;20020;-84
2022/03/24 07:33:46;;;;;;;56.58;29.15;;;10.10;99.90;;;;;;6131697;23;20019;-84
2022/03/24 07:36:13;;;;;;;52.40;26.73;;;10.70;99.90;;;;;;6156001;23;20020;-83
2022/03/24 07:38:39;;;;;;;52.50;28.65;;;11.30;99.90;;;;;;6156466;23;20028;-82
2022/03/24 07:41:05;;;;;;;60.55;29.60;;;11.80;99.90;;;;;;6164013;23;20032;-81
2022/03/24 07:43:30;;;;;;;53.35;29.33;;;12.10;99.90;;;;;;6164574;23;20013;-81
2022/03/24 07:45:56;;;;;;;55.97;28.50;;;12.50;99.90;;;;;;6163273;23;20017;-80
2022/03/24 07:48:28;;;;;;;53.17;30.10;;;13.00;99.90;;;;;;6164000;23;20096;-81
2022/03/24 07:50:57;;;;;;;;;;;13.20;99.90;;;;;;6164621;23;20021;-81
2022/03/24 07:53:35;;;;;;;53.90;28.58;;;13.20;99.90;;;;;;6167099;23;19912;-81
2022/03/24 07:56:01;;;;;;;59.42;28.77;;;13.40;99.90;;;;;;6164142;23;20013;-82
2022/03/24 07:58:27;;;;;;;51.30;29.00;;;13.50;99.90;;;;;;6164640;23;20059;-82
2022/03/24 08:00:53;;;;;;;52.72;28.42;;;13.70;99.90;;;;;;6163787;23;20021;-83
2022/03/24 08:03:20;;;;;;;55.90;29.63;;;14.00;99.90;;;;;;6163299;23;20075;-83
2022/03/24 08:05:47;;;;;;;52.97;28.27;;;14.30;99.90;;;;;;6163652;23;20024;-82
2022/03/24 08:08:14;;;;;;;49.38;29.17;;;14.50;99.90;;;;;;6163192;23;20013;-83
2022/03/24 08:10:44;;;;;;;51.60;28.63;;;14.80;99.90;;;;;;6163101;23;20024;-82
2022/03/24 08:13:12;;;;;;;50.80;28.63;;;14.90;99.90;;;;;;6168480;23;20453;-80
2022/03/24 08:15:38;;;;;;;52.72;28.50;;;15.00;99.90;;;;;;6169722;23;20005;-81
2022/03/24 08:18:05;;;;;;;46.35;27.95;;;15.20;99.90;;;;;;6168990;23;20044;-81
2022/03/24 08:20:35;;;;;;;49.80;28.17;;;15.30;99.90;;;;;;6169005;23;20362;-81
2022/03/24 08:23:02;;;;;;;45.42;27.30;;;15.50;99.90;;;;;;6169722;23;20040;-81
2022/03/24 08:25:28;;;;;;;49.92;27.98;;;15.70;99.90;;;;;;6169475;23;20533;-81
2022/03/24 08:27:53;;;;;;;49.90;29.95;;;15.60;99.90;;;;;;6144799;23;20082;-81
2022/03/24 08:30:19;;;;;;;49.20;29.17;;;15.70;99.90;;;;;;6168733;23;20013;-81
2022/03/24 08:32:45;;;;;;;48.17;27.17;;;15.70;99.90;;;;;;6168519;23;20009;-81
2022/03/24 08:35:10;;;;;;;48.47;27.48;;;15.70;99.90;;;;;;6168723;23;20524;-81
2022/03/24 08:37:37;;;;;;;48.38;27.85;;;15.80;99.90;;;;;;6171040;23;20023;-80
2022/03/24 08:40:04;;;;;;;42.80;25.88;;;16.10;99.90;;;;;;6169955;23;20013;-80
2022/03/24 08:42:30;;;;;;;46.17;26.90;;;16.30;99.90;;;;;;6170045;23;20088;-80
2022/03/24 08:44:55;;;;;;;44.88;26.00;;;16.60;99.90;;;;;;6153804;23;20450;-80
2022/03/24 08:47:21;;;;;;;50.75;28.50;;;16.80;99.90;;;;;;6179341;23;20093;-80
2022/03/24 08:49:47;;;;;;;48.10;27.95;;;17.00;99.90;;;;;;6173195;23;20509;-80
2022/03/24 08:52:13;;;;;;;49.60;27.60;;;17.00;99.90;;;;;;6174278;23;20013;-81
2022/03/24 08:54:38;;;;;;;45.58;27.20;;;17.00;99.80;;;;;;6175615;23;20013;-81
2022/03/24 08:57:04;;;;;;;46.78;27.52;;;17.10;99.50;;;;;;6174577;23;20470;-81
2022/03/24 08:59:30;;;;;;;45.65;27.35;;;17.20;98.60;;;;;;6173755;23;20016;-81
2022/03/24 09:01:57;;;;;;;52.13;28.05;;;17.40;97.50;;;;;;6171465;23;20012;-80
2022/03/24 09:23:34;;;;;;;;;;;;;;;;;;;;;
2022/03/24 09:27:02;;;;;;;;;;;;;;;;;;;;;
2022/03/24 09:30:19;;;;;;;;;;;;;;;;;;;;;
2022/03/24 09:33:22;;;;;;;41.05;23.90;;;18.50;65.80;;;;;;6074575;23;20023;-82
2022/03/24 09:38:47;;;;;;;46.22;24.85;;;19.00;69.50;;;;;;6196206;23;20034;-80
2022/03/24 09:41:20;;;;;;;40.47;24.42;;;19.20;66.20;;;;;;6168213;23;20048;-81
2022/03/24 09:43:47;;;;;;;43.40;24.25;;;19.20;63.80;;;;;;6143465;23;20040;-80
2022/03/24 09:46:15;;;;;;;44.45;26.45;;;19.20;61.50;;;;;;6163828;23;20017;-80
2022/03/24 09:48:41;;;;;;;39.33;23.20;;;19.30;59.20;;;;;;6138239;23;20028;-80
2022/03/24 09:51:07;;;;;;;40.70;23.15;;;19.20;59.90;;;;;;6113672;23;20017;-80
2022/03/24 09:53:39;;;;;;;41.22;24.48;;;19.30;58.00;;;;;;6113726;23;20013;-80
2022/03/24 09:56:05;;;;;;;42.75;22.67;;;19.40;56.80;;;;;;6139049;23;20076;-81
2022/03/24 09:58:31;;;;;;;40.10;23.33;;;19.50;56.50;;;;;;6113937;23;20060;-80
2022/03/24 10:00:57;;;;;;;40.53;23.35;;;19.60;57.80;;;;;;6138392;23;20017;-80
2022/03/24 10:03:22;;;;;;;40.08;23.70;;;19.70;55.30;;;;;;6139045;23;20018;-80
2022/03/24 10:06:09;;;;;;;41.28;23.80;;;19.90;54.10;;;;;;6114573;23;20402;-80
2022/03/24 10:08:36;;;;;;;39.72;23.63;;;20.10;52.30;;;;;;6114138;23;20017;-80
2022/03/24 10:11:06;;;;;;;41.80;23.27;;;20.40;51.60;;;;;;6117909;23;20013;-81
2022/03/24 10:13:43;;;;;;;40.38;23.20;;;20.40;50.90;;;;;;6120901;23;20044;-81
2022/03/24 10:16:09;;;;;;;37.35;21.73;;;20.20;49.80;;;;;;6105246;23;20338;-81
2022/03/24 10:18:35;;;;;;;39.72;23.08;;;20.20;51.20;;;;;;6129257;23;20092;-81
2022/03/24 10:21:03;;;;;;;43.25;24.70;;;20.00;50.30;;;;;;6104398;23;20022;-81
2022/03/24 10:23:33;;;;;;;41.42;23.02;;;19.60;49.70;;;;;;6130316;23;20018;-81
2022/03/24 10:26:03;;;;;;;42.42;22.67;;;19.30;50.40;;;;;;6105348;23;20045;-80
2022/03/24 10:28:29;;;;;;;43.03;22.98;;;18.90;50.90;;;;;;6104445;23;20447;-80
2022/03/24 10:30:58;;;;;;;44.38;23.13;;;18.80;52.10;;;;;;6130419;23;20021;-81
2022/03/24 10:33:45;;;;;;;37.13;21.50;;;18.60;52.50;;;;;;6131296;23;20014;-82
2022/03/24 10:36:15;;;;;;;41.63;22.95;;;18.50;49.80;;;;;;6105093;23;20060;-80
2022/03/24 10:38:43;;;;;;;43.08;23.02;;;18.40;52.20;;;;;;6148644;23;20037;-79
2022/03/24 10:41:29;;;;;;;44.80;24.20;;;18.30;53.00;;;;;;6157936;23;20016;-79
2022/03/24 10:43:58;;;;;;;36.47;21.30;;;18.30;51.80;;;;;;6158700;23;20531;-79
2022/03/24 10:46:25;;;;;;;40.80;21.95;;;18.10;51.40;;;;;;6185801;23;20438;-80
2022/03/24 10:48:52;;;;;;;40.97;22.95;;;17.90;51.40;;;;;;6184608;23;20381;-79
2022/03/24 10:51:29;;;;;;;38.67;20.25;;;18.00;51.90;;;;;;6158355;23;20069;-79
2022/03/24 10:54:15;;;;;;;37.05;19.23;;;18.00;50.40;;;;;;6160767;23;20205;-80
2022/03/24 10:56:54;;;;;;;41.33;20.42;;;18.00;49.50;;;;;;6161784;23;20017;-79
2022/03/24 10:59:21;;;;;;;39.53;21.02;;;18.10;49.40;;;;;;6162825;23;20500;-81
2022/03/24 11:01:49;;;;;;;39.08;18.92;;;18.20;49.70;;;;;;6136170;23;20016;-82
2022/03/24 11:04:15;;;;;;;32.70;16.88;;;18.30;48.10;;;;;;6134658;23;20021;-82
2022/03/24 11:06:51;;;;;;;34.13;17.67;;;18.30;47.20;;;;;;6159902;23;20017;-82
2022/03/24 11:09:30;;;;;;;28.45;16.40;;;18.30;43.50;;;;;;6135080;23;20057;-81
2022/03/24 11:12:25;;;;;;;36.35;18.70;;;18.40;46.70;;;;;;6136007;23;20017;-82
2022/03/24 11:14:54;;;;;;;33.20;17.90;;;18.40;43.90;;;;;;6165240;23;20017;-82
2022/03/24 11:17:22;;;;;;;33.42;17.38;;;18.50;46.30;;;;;;6168351;23;20048;-82
2022/03/24 11:20:11;;;;;;;30.58;15.75;;;18.60;45.80;;;;;;6137156;23;20013;-82
2022/03/24 11:22:51;;;;;;;33.90;16.60;;;18.60;45.50;;;;;;6151503;23;20505;-81
2022/03/24 11:25:17;;;;;;;27.10;15.02;;;18.70;45.40;;;;;;6161227;23;20019;-82
2022/03/24 11:27:44;;;;;;;30.63;16.63;;;18.60;45.90;;;;;;6140506;23;20394;-82
2022/03/24 11:30:10;;;;;;;28.38;15.90;;;18.70;45.60;;;;;;6162833;23;20017;-82
2022/03/24 11:32:37;;;;;;;33.83;16.45;;;18.80;46.20;;;;;;6160838;23;20013;-82
2022/03/24 11:35:05;;;;;;;29.95;17.17;;;18.80;45.90;;;;;;6162743;23;20390;-82
2022/03/24 11:37:30;;;;;;;33.35;15.75;;;18.80;45.50;;;;;;6132305;23;20009;-82
2022/03/24 11:40:26;;;;;;;32.20;15.30;;;18.90;45.80;;;;;;6106192;23;20049;-84
2022/03/24 11:42:55;;;;;;;30.33;14.60;;;18.90;44.10;;;;;;6132664;23;20076;-82
2022/03/24 11:45:33;;;;;;;28.35;16.40;;;18.80;45.50;;;;;;6133489;23;20017;-82
2022/03/24 11:48:05;;;;;;;27.90;14.23;;;18.80;45.10;;;;;;6107917;23;20017;-82
2022/03/24 11:50:37;;;;;;;;;;;18.80;45.40;;;;;;6131661;23;20024;-82
2022/03/24 11:53:17;;;;;;;25.25;12.05;;;18.90;43.70;;;;;;6131637;23;20329;-82
2022/03/24 11:56:01;;;;;;;32.00;15.00;;;19.00;43.50;;;;;;6135075;23;20020;-80
2022/03/24 11:58:31;;;;;;;23.67;14.55;;;19.20;44.60;;;;;;6131380;23;20517;-82
2022/03/24 12:01:17;;;;;;;30.48;15.35;;;19.20;44.80;;;;;;6131953;23;20013;-82
2022/03/24 12:03:54;;;;;;;32.20;14.65;;;19.30;42.60;;;;;;6130873;23;20021;-82
2022/03/24 12:06:46;;;;;;;30.05;13.75;;;19.40;44.50;;;;;;6130363;23;20025;-81
2022/03/24 12:09:28;;;;;;;30.38;14.70;;;19.50;44.60;;;;;;6108527;23;20051;-81
2022/03/24 12:12:03;;;;;;;31.30;14.27;;;19.60;44.30;;;;;;6132298;23;20084;-81
2022/03/24 12:14:31;;;;;;;28.60;13.70;;;19.60;44.40;;;;;;6110615;23;20013;-82
2022/03/24 12:17:18;;;;;;;21.80;11.38;;;19.60;44.10;;;;;;6132313;23;20018;-81
2022/03/24 12:19:52;;;;;;;27.70;13.23;;;19.60;44.20;;;;;;6130961;23;20089;-82
2022/03/24 12:22:30;;;;;;;27.92;12.43;;;19.80;44.40;;;;;;6108937;23;20386;-81
2022/03/24 12:24:59;;;;;;;21.10;10.93;;;19.90;43.20;;;;;;6133396;23;20144;-81
2022/03/24 12:27:29;;;;;;;26.48;12.15;;;19.90;43.60;;;;;;6107672;23;20037;-81
2022/03/24 12:30:14;;;;;;;25.65;12.20;;;19.80;43.80;;;;;;6130189;23;20017;-81
2022/03/24 12:32:41;;;;;;;26.65;12.57;;;19.70;43.70;;;;;;6130924;23;20045;-82
2022/03/24 12:35:08;;;;;;;27.85;11.45;;;19.70;43.70;;;;;;6130348;23;20068;-82
2022/03/24 12:37:33;;;;;;;24.63;11.25;;;19.70;43.60;;;;;;6136079;23;20021;-81
2022/03/24 12:40:05;;;;;;;27.15;11.35;;;19.70;43.80;;;;;;6159301;23;20260;-81
2022/03/24 12:42:49;;;;;;;22.95;11.82;;;19.70;43.90;;;;;;6133995;23;20021;-81
2022/03/24 12:45:26;;;;;;;25.73;11.05;;;19.60;43.90;;;;;;6159343;23;20020;-81
2022/03/24 12:47:56;;;;;;;25.00;10.10;;;19.50;44.40;;;;;;6134719;23;20457;-81
2022/03/24 12:50:21;;;;;;;25.48;10.32;;;19.50;44.50;;;;;;6159496;23;20021;-82
2022/03/24 12:52:54;;;;;;;19.08;8.93;;;19.50;44.40;;;;;;6160790;23;20095;-82
2022/03/24 12:55:27;;;;;;;26.98;10.82;;;19.50;44.20;;;;;;6160276;23;20013;-81
2022/03/24 12:58:01;;;;;;;22.90;11.73;;;19.50;43.90;;;;;;6162130;23;20402;-82
2022/03/24 13:00:29;;;;;;;25.50;10.95;;;19.40;42.90;;;;;;6135003;23;20045;-82
2022/03/24 13:02:56;;;;;;;25.73;11.60;;;19.30;43.90;;;;;;6134860;23;20048;-82
2022/03/24 13:05:33;;;;;;;30.58;12.38;;;19.30;43.50;;;;;;6135920;23;20080;-82
2022/03/24 13:08:01;;;;;;;23.50;11.88;;;19.20;43.70;;;;;;6160370;23;20044;-81